Terminal Aerodrome Forecast
Issued by NWS Mt. Holly, NJ

Home | Current Version | Previous Version | Text Only | Print | Product List | Glossary On
Versions: 1 2 3 4 5 6 7 8 9 10 11 12 13 14 15 16 17
000
FTUS41 KPHI 021001 AAB
TAFTTN
TAF AMD
KTTN 021001Z 0210/0306 VRB03KT P6SM FEW050
      TEMPO 0210/0212 1/4SM FG BKN001
     FM021400 20005KT P6SM FEW050
     FM022200 15004KT P6SM SCT250=

USA.gov is the U.S. government's official web portal to all federal, state and local government web resources and services.